createdAt,value
2023-02-20T00:02:21.782Z,0.14
2023-02-20T00:12:29.016Z,0.09
2023-02-20T00:22:36.057Z,-0.01
2023-02-20T00:32:43.183Z,-0.07
2023-02-20T00:42:50.556Z,-0.13
2023-02-20T00:52:57.652Z,-0.12
2023-02-20T01:03:04.933Z,-0.04
2023-02-20T01:13:13.319Z,-0.06
2023-02-20T01:23:20.405Z,-0.03
2023-02-20T01:33:27.064Z,-0.08
2023-02-20T01:43:34.374Z,0.02
2023-02-20T01:53:41.569Z,0.17
2023-02-20T02:03:54.290Z,0.29
2023-02-20T02:14:01.255Z,0.30
2023-02-20T02:24:40.537Z,0.24
2023-02-20T02:35:17.624Z,0.10
2023-02-20T02:45:22.514Z,0.05
2023-02-20T02:55:33.954Z,0.08
2023-02-20T03:05:40.461Z,0.05
2023-02-20T03:15:45.186Z,-0.08
2023-02-20T03:25:53.294Z,-0.21
2023-02-20T03:36:20.747Z,-0.27
2023-02-20T03:46:31.166Z,-0.18
2023-02-20T03:56:36.273Z,-0.13
2023-02-20T04:06:44.752Z,-0.17
2023-02-20T04:16:57.565Z,-0.24
2023-02-20T04:27:05.576Z,-0.37
2023-02-20T04:37:15.789Z,-0.48
2023-02-20T04:47:23.093Z,-0.42
2023-02-20T05:07:36.441Z,-0.13
2023-02-20T05:17:43.907Z,-0.16
2023-02-20T05:27:51.402Z,-0.18
2023-02-20T05:37:58.487Z,-0.12
2023-02-20T05:48:05.879Z,0.01
2023-02-20T05:58:13.585Z,0.20
2023-02-20T06:08:21.015Z,0.37
2023-02-20T06:18:28.272Z,0.50
2023-02-20T06:28:35.398Z,0.58
2023-02-20T06:38:42.878Z,0.71
2023-02-20T06:48:51.740Z,0.94
2023-02-20T06:59:00.688Z,1.15
2023-02-20T07:09:08.538Z,1.33
2023-02-20T07:19:15.894Z,1.51
2023-02-20T07:29:28.962Z,1.68
2023-02-20T07:39:39.426Z,1.98
2023-02-20T07:49:47.513Z,3.13
2023-02-20T07:59:53.646Z,3.73
2023-02-20T08:09:59.909Z,3.57
2023-02-20T08:20:04.236Z,3.56
2023-02-20T08:30:12.576Z,3.80
2023-02-20T08:40:17.570Z,4.03
2023-02-20T08:50:23.726Z,4.10
2023-02-20T09:00:33.244Z,4.00
2023-02-20T09:10:41.701Z,3.92
2023-02-20T09:20:48.586Z,3.76
2023-02-20T09:30:57.579Z,3.74
2023-02-20T09:41:05.155Z,3.81
2023-02-20T09:51:15.902Z,3.84
2023-02-20T10:01:24.613Z,4.06
2023-02-20T10:11:45.904Z,4.54
2023-02-20T10:21:53.475Z,4.85
2023-02-20T10:32:03.054Z,5.05
2023-02-20T10:42:15.425Z,5.16
2023-02-20T10:52:33.823Z,5.28
2023-02-20T11:02:48.147Z,5.21
2023-02-20T11:23:06.795Z,5.31
2023-02-20T11:43:27.133Z,5.75
2023-02-20T11:53:36.811Z,6.06
2023-02-20T12:03:58.565Z,6.21
2023-02-20T12:14:12.703Z,6.17
2023-02-20T12:24:56.315Z,6.23
2023-02-20T12:35:17.196Z,6.45
2023-02-20T12:45:28.939Z,6.64
2023-02-20T12:55:34.488Z,6.81
2023-02-20T13:05:44.150Z,7.11
2023-02-20T13:15:49.592Z,7.27
2023-02-20T13:25:57.902Z,7.44
2023-02-20T13:36:06.274Z,7.62
2023-02-20T13:46:18.100Z,7.66
2023-02-20T13:56:28.156Z,7.74
2023-02-20T14:06:32.906Z,7.96
2023-02-20T14:16:44.488Z,8.09
2023-02-20T14:26:51.981Z,8.09
2023-02-20T14:37:02.952Z,8.08
2023-02-20T14:47:10.956Z,8.11
2023-02-20T14:57:17.006Z,8.17
2023-02-20T15:07:24.776Z,8.14
2023-02-20T15:17:33.856Z,8.23
2023-02-20T15:27:40.130Z,8.25
2023-02-20T15:37:49.943Z,8.18
2023-02-20T15:47:58.771Z,8.15
2023-02-20T15:58:14.101Z,8.26
2023-02-20T16:08:25.910Z,8.27
2023-02-20T16:18:33.082Z,8.26
2023-02-20T16:28:41.051Z,8.24
2023-02-20T16:38:48.195Z,8.42
2023-02-20T16:48:55.270Z,8.48
2023-02-20T16:59:04.636Z,8.45
2023-02-20T17:09:11.756Z,8.49
2023-02-20T17:19:17.766Z,8.48
2023-02-20T17:29:27.144Z,8.46
2023-02-20T17:39:32.781Z,8.48
2023-02-20T17:49:41.594Z,8.47
2023-02-20T17:59:48.819Z,8.54
2023-02-20T18:09:57.293Z,8.52
2023-02-20T18:20:04.593Z,8.51
2023-02-20T18:30:14.573Z,8.44
2023-02-20T18:40:21.117Z,8.47
2023-02-20T18:50:28.388Z,8.48
2023-02-20T19:00:36.104Z,8.46
2023-02-20T19:10:43.236Z,8.53
2023-02-20T19:20:52.865Z,8.65
2023-02-20T19:31:00.374Z,8.75
2023-02-20T19:41:07.862Z,8.81
2023-02-20T19:51:16.490Z,8.86
2023-02-20T20:01:23.843Z,8.83
2023-02-20T20:11:31.050Z,8.84
2023-02-20T20:21:39.517Z,8.87
2023-02-20T20:31:46.690Z,8.85
2023-02-20T20:52:00.968Z,8.80
2023-02-20T21:02:08.479Z,8.71
2023-02-20T21:12:15.314Z,8.68
2023-02-20T21:22:22.601Z,8.68
2023-02-20T21:32:30.066Z,8.62
2023-02-20T21:42:54.808Z,8.59
2023-02-20T21:53:02.360Z,8.57
2023-02-20T22:03:08.288Z,8.49
2023-02-20T22:13:33.137Z,8.47
2023-02-20T22:23:58.222Z,8.46
2023-02-20T22:34:22.969Z,8.43
2023-02-20T22:44:47.667Z,8.46
2023-02-20T22:55:12.565Z,8.39
2023-02-20T23:05:38.113Z,8.39
2023-02-20T23:16:03.562Z,8.41
2023-02-20T23:26:30.400Z,8.33
2023-02-20T23:36:55.243Z,8.30
2023-02-20T23:47:20.899Z,8.27
2023-02-20T23:57:45.587Z,8.16
